sensor_id;sensor_type;location;lat;lon;timestamp;pressure;altitude;pressure_sealevel;temperature;humidity
52719;BME280;38616;42.140;24.760;2022-09-23T00:01:18;99745.50;;;13.79;49.61
52719;BME280;38616;42.140;24.760;2022-09-23T00:03:44;99744.06;;;13.68;50.08
52719;BME280;38616;42.140;24.760;2022-09-23T00:06:17;99751.00;;;13.60;50.13
52719;BME280;38616;42.140;24.760;2022-09-23T00:08:42;99742.44;;;13.48;50.40
52719;BME280;38616;42.140;24.760;2022-09-23T00:11:12;99736.69;;;13.49;50.36
52719;BME280;38616;42.140;24.760;2022-09-23T00:13:38;99736.53;;;13.59;50.45
52719;BME280;38616;42.140;24.760;2022-09-23T00:16:04;99742.78;;;13.60;50.27
52719;BME280;38616;42.140;24.760;2022-09-23T00:18:30;99734.59;;;13.41;50.88
52719;BME280;38616;42.140;24.760;2022-09-23T00:20:56;99733.06;;;13.54;50.53
52719;BME280;38616;42.140;24.760;2022-09-23T00:23:21;99731.59;;;13.42;50.87
52719;BME280;38616;42.140;24.760;2022-09-23T00:25:54;99739.00;;;13.42;50.59
52719;BME280;38616;42.140;24.760;2022-09-23T00:28:19;99731.09;;;13.59;50.24
52719;BME280;38616;42.140;24.760;2022-09-23T00:30:45;99731.97;;;13.88;49.93
52719;BME280;38616;42.140;24.760;2022-09-23T00:33:10;99731.41;;;13.72;49.69
52719;BME280;38616;42.140;24.760;2022-09-23T00:35:35;99732.66;;;13.80;49.88
52719;BME280;38616;42.140;24.760;2022-09-23T00:38:00;99728.16;;;14.03;48.92
52719;BME280;38616;42.140;24.760;2022-09-23T00:40:26;99728.91;;;14.09;48.72
52719;BME280;38616;42.140;24.760;2022-09-23T00:42:51;99733.56;;;14.22;48.26
52719;BME280;38616;42.140;24.760;2022-09-23T00:45:17;99730.22;;;14.11;48.42
52719;BME280;38616;42.140;24.760;2022-09-23T00:47:43;99732.75;;;13.74;48.99
52719;BME280;38616;42.140;24.760;2022-09-23T00:52:35;99727.28;;;13.36;50.18
52719;BME280;38616;42.140;24.760;2022-09-23T00:55:02;99728.44;;;13.54;49.77
52719;BME280;38616;42.140;24.760;2022-09-23T00:57:29;99730.66;;;13.85;48.87
52719;BME280;38616;42.140;24.760;2022-09-23T00:59:55;99726.09;;;13.81;49.21
52719;BME280;38616;42.140;24.760;2022-09-23T01:02:22;99730.78;;;13.94;48.48
52719;BME280;38616;42.140;24.760;2022-09-23T01:04:48;99734.03;;;13.96;48.57
52719;BME280;38616;42.140;24.760;2022-09-23T01:07:14;99733.94;;;14.01;48.23
52719;BME280;38616;42.140;24.760;2022-09-23T01:09:39;99736.41;;;13.84;48.56
52719;BME280;38616;42.140;24.760;2022-09-23T01:35:42;99717.00;;;13.85;48.59
52719;BME280;38616;42.140;24.760;2022-09-23T01:43:13;99721.63;;;13.52;49.57
52719;BME280;38616;42.140;24.760;2022-09-23T01:45:44;99733.53;;;13.42;50.08
52719;BME280;38616;42.140;24.760;2022-09-23T01:50:40;99729.69;;;13.43;50.35
52719;BME280;38616;42.140;24.760;2022-09-23T01:55:53;99727.50;;;13.01;50.80
52719;BME280;38616;42.140;24.760;2022-09-23T02:00:52;99734.13;;;12.95;51.25
52719;BME280;38616;42.140;24.760;2022-09-23T02:03:23;99724.13;;;12.91;51.33
52719;BME280;38616;42.140;24.760;2022-09-23T02:05:58;99734.41;;;12.75;51.60
52719;BME280;38616;42.140;24.760;2022-09-23T02:08:30;99730.59;;;12.95;51.06
52719;BME280;38616;42.140;24.760;2022-09-23T02:11:02;99727.47;;;12.63;51.73
52719;BME280;38616;42.140;24.760;2022-09-23T02:16:00;99721.81;;;12.54;52.29
52719;BME280;38616;42.140;24.760;2022-09-23T02:18:29;99730.38;;;12.91;51.21
52719;BME280;38616;42.140;24.760;2022-09-23T02:20:59;99732.22;;;12.77;51.62
52719;BME280;38616;42.140;24.760;2022-09-23T02:23:42;99733.72;;;12.64;51.75
52719;BME280;38616;42.140;24.760;2022-09-23T02:34:10;99738.41;;;12.34;53.00
52719;BME280;38616;42.140;24.760;2022-09-23T02:36:41;99738.47;;;12.29;53.32
52719;BME280;38616;42.140;24.760;2022-09-23T02:39:10;99735.38;;;12.60;52.48
52719;BME280;38616;42.140;24.760;2022-09-23T02:41:50;99738.28;;;12.44;52.90
52719;BME280;38616;42.140;24.760;2022-09-23T02:44:19;99739.97;;;12.40;53.16
52719;BME280;38616;42.140;24.760;2022-09-23T02:46:44;99742.88;;;12.49;53.04
52719;BME280;38616;42.140;24.760;2022-09-23T02:49:11;99737.91;;;12.56;52.83
52719;BME280;38616;42.140;24.760;2022-09-23T02:51:38;99747.91;;;12.61;52.84
52719;BME280;38616;42.140;24.760;2022-09-23T02:54:05;99731.94;;;12.54;53.09
52719;BME280;38616;42.140;24.760;2022-09-23T02:56:31;99740.94;;;12.49;53.12
52719;BME280;38616;42.140;24.760;2022-09-23T02:58:57;99741.78;;;12.50;53.25
52719;BME280;38616;42.140;24.760;2022-09-23T03:01:37;99744.25;;;12.46;53.49
52719;BME280;38616;42.140;24.760;2022-09-23T03:04:22;99745.38;;;12.69;52.65
52719;BME280;38616;42.140;24.760;2022-09-23T03:06:58;99747.97;;;12.55;52.91
52719;BME280;38616;42.140;24.760;2022-09-23T03:09:27;99755.03;;;12.56;53.20
52719;BME280;38616;42.140;24.760;2022-09-23T03:11:56;99752.91;;;12.78;52.73
52719;BME280;38616;42.140;24.760;2022-09-23T03:14:25;99755.91;;;12.76;52.60
52719;BME280;38616;42.140;24.760;2022-09-23T03:22:04;99758.34;;;12.53;53.22
52719;BME280;38616;42.140;24.760;2022-09-23T03:24:32;99756.97;;;12.56;53.26
52719;BME280;38616;42.140;24.760;2022-09-23T03:27:07;99762.00;;;12.68;52.82
52719;BME280;38616;42.140;24.760;2022-09-23T03:29:38;99764.03;;;12.57;53.09
52719;BME280;38616;42.140;24.760;2022-09-23T03:32:03;99761.31;;;12.57;53.24
52719;BME280;38616;42.140;24.760;2022-09-23T03:34:32;99762.13;;;12.57;53.34
52719;BME280;38616;42.140;24.760;2022-09-23T03:37:03;99764.56;;;12.83;52.71
52719;BME280;38616;42.140;24.760;2022-09-23T03:39:33;99770.69;;;12.70;53.10
52719;BME280;38616;42.140;24.760;2022-09-23T03:42:00;99763.41;;;12.65;53.27
52719;BME280;38616;42.140;24.760;2022-09-23T03:44:27;99764.97;;;12.71;53.01
52719;BME280;38616;42.140;24.760;2022-09-23T03:46:53;99780.28;;;12.67;53.28
52719;BME280;38616;42.140;24.760;2022-09-23T03:49:26;99787.97;;;12.36;53.95
52719;BME280;38616;42.140;24.760;2022-09-23T03:51:52;99775.97;;;12.07;55.15
52719;BME280;38616;42.140;24.760;2022-09-23T03:54:18;99779.31;;;11.94;55.55
52719;BME280;38616;42.140;24.760;2022-09-23T03:56:44;99788.16;;;11.80;56.44
52719;BME280;38616;42.140;24.760;2022-09-23T03:59:11;99789.34;;;11.98;56.04
52719;BME280;38616;42.140;24.760;2022-09-23T04:01:39;99787.16;;;12.06;55.95
52719;BME280;38616;42.140;24.760;2022-09-23T04:04:05;99791.56;;;11.96;56.19
52719;BME280;38616;42.140;24.760;2022-09-23T04:06:31;99787.09;;;12.11;55.72
52719;BME280;38616;42.140;24.760;2022-09-23T04:08:57;99786.38;;;12.00;55.74
52719;BME280;38616;42.140;24.760;2022-09-23T04:11:22;99787.78;;;11.92;56.41
52719;BME280;38616;42.140;24.760;2022-09-23T04:13:48;99781.81;;;11.90;56.40
52719;BME280;38616;42.140;24.760;2022-09-23T04:16:13;99782.13;;;11.83;56.70
52719;BME280;38616;42.140;24.760;2022-09-23T04:18:38;99780.66;;;11.96;56.64
52719;BME280;38616;42.140;24.760;2022-09-23T04:21:03;99789.09;;;12.00;56.26
52719;BME280;38616;42.140;24.760;2022-09-23T04:23:29;99798.47;;;11.83;57.01
52719;BME280;38616;42.140;24.760;2022-09-23T04:25:54;99786.97;;;11.92;57.06
52719;BME280;38616;42.140;24.760;2022-09-23T04:28:20;99798.19;;;11.80;57.09
52719;BME280;38616;42.140;24.760;2022-09-23T04:30:45;99798.84;;;11.66;57.54
52719;BME280;38616;42.140;24.760;2022-09-23T04:33:12;99793.81;;;11.84;57.52
52719;BME280;38616;42.140;24.760;2022-09-23T04:35:38;99785.63;;;11.89;56.94
52719;BME280;38616;42.140;24.760;2022-09-23T04:38:05;99791.16;;;12.14;56.57
52719;BME280;38616;42.140;24.760;2022-09-23T04:40:30;99787.81;;;11.87;57.04
52719;BME280;38616;42.140;24.760;2022-09-23T04:42:55;99797.03;;;11.91;57.31
52719;BME280;38616;42.140;24.760;2022-09-23T04:45:21;99797.91;;;11.87;56.72
52719;BME280;38616;42.140;24.760;2022-09-23T04:47:46;99818.81;;;11.91;56.92
52719;BME280;38616;42.140;24.760;2022-09-23T04:50:11;99811.94;;;11.99;56.56
52719;BME280;38616;42.140;24.760;2022-09-23T04:52:37;99812.41;;;12.11;55.84
52719;BME280;38616;42.140;24.760;2022-09-23T04:55:02;99800.91;;;12.20;55.88
52719;BME280;38616;42.140;24.760;2022-09-23T04:57:28;99808.94;;;12.35;55.35
52719;BME280;38616;42.140;24.760;2022-09-23T04:59:53;99805.47;;;12.30;55.17
52719;BME280;38616;42.140;24.760;2022-09-23T05:02:21;99795.72;;;12.23;55.73
52719;BME280;38616;42.140;24.760;2022-09-23T05:04:46;99807.94;;;12.26;55.04
52719;BME280;38616;42.140;24.760;2022-09-23T05:07:12;99821.06;;;12.48;55.10
52719;BME280;38616;42.140;24.760;2022-09-23T05:09:37;99827.72;;;12.37;55.25
52719;BME280;38616;42.140;24.760;2022-09-23T05:12:05;99819.88;;;12.30;55.06
52719;BME280;38616;42.140;24.760;2022-09-23T05:14:30;99825.78;;;12.43;54.61
52719;BME280;38616;42.140;24.760;2022-09-23T05:16:55;99818.72;;;12.66;54.21
52719;BME280;38616;42.140;24.760;2022-09-23T05:19:21;99819.53;;;12.66;53.86
52719;BME280;38616;42.140;24.760;2022-09-23T05:21:46;99820.53;;;12.46;54.14
52719;BME280;38616;42.140;24.760;2022-09-23T05:24:12;99818.25;;;12.59;53.83
52719;BME280;38616;42.140;24.760;2022-09-23T05:26:37;99813.53;;;12.69;53.51
52719;BME280;38616;42.140;24.760;2022-09-23T05:29:03;99812.78;;;12.59;53.49
52719;BME280;38616;42.140;24.760;2022-09-23T05:31:29;99807.66;;;12.57;53.36
52719;BME280;38616;42.140;24.760;2022-09-23T05:33:58;99821.34;;;12.76;53.31
52719;BME280;38616;42.140;24.760;2022-09-23T05:36:24;99813.00;;;12.67;53.13
52719;BME280;38616;42.140;24.760;2022-09-23T05:38:50;99822.44;;;12.75;53.09
52719;BME280;38616;42.140;24.760;2022-09-23T05:41:17;99816.97;;;12.99;52.54
52719;BME280;38616;42.140;24.760;2022-09-23T05:43:43;99817.56;;;12.96;52.59
52719;BME280;38616;42.140;24.760;2022-09-23T05:46:19;99824.25;;;13.09;52.22
52719;BME280;38616;42.140;24.760;2022-09-23T05:48:44;99821.94;;;13.41;51.68
52719;BME280;38616;42.140;24.760;2022-09-23T05:51:17;99814.75;;;13.26;51.91
52719;BME280;38616;42.140;24.760;2022-09-23T05:53:44;99816.22;;;13.37;51.67
52719;BME280;38616;42.140;24.760;2022-09-23T05:56:10;99815.13;;;13.38;51.79
52719;BME280;38616;42.140;24.760;2022-09-23T05:58:36;99816.97;;;13.24;52.18
52719;BME280;38616;42.140;24.760;2022-09-23T06:01:07;99815.31;;;13.47;51.96
52719;BME280;38616;42.140;24.760;2022-09-23T06:03:33;99814.88;;;13.59;51.67
52719;BME280;38616;42.140;24.760;2022-09-23T06:05:59;99818.09;;;13.80;51.25
52719;BME280;38616;42.140;24.760;2022-09-23T06:08:24;99815.22;;;13.91;50.57
52719;BME280;38616;42.140;24.760;2022-09-23T06:10:49;99816.84;;;13.92;50.66
52719;BME280;38616;42.140;24.760;2022-09-23T06:13:15;99833.47;;;13.57;50.99
52719;BME280;38616;42.140;24.760;2022-09-23T06:15:40;99812.06;;;13.64;51.52
52719;BME280;38616;42.140;24.760;2022-09-23T06:18:07;99818.25;;;13.70;51.17
52719;BME280;38616;42.140;24.760;2022-09-23T06:20:33;99818.56;;;13.68;51.15
52719;BME280;38616;42.140;24.760;2022-09-23T06:23:06;99804.84;;;13.54;51.80
52719;BME280;38616;42.140;24.760;2022-09-23T06:25:32;99821.75;;;13.56;51.87
52719;BME280;38616;42.140;24.760;2022-09-23T06:27:58;99829.03;;;13.61;51.79
52719;BME280;38616;42.140;24.760;2022-09-23T06:30:23;99818.19;;;13.94;51.41
52719;BME280;38616;42.140;24.760;2022-09-23T06:32:51;99818.91;;;14.47;50.24
52719;BME280;38616;42.140;24.760;2022-09-23T06:35:17;99817.72;;;14.53;49.88
52719;BME280;38616;42.140;24.760;2022-09-23T06:37:42;99811.34;;;14.58;49.21
52719;BME280;38616;42.140;24.760;2022-09-23T06:40:08;99831.00;;;13.94;50.07
52719;BME280;38616;42.140;24.760;2022-09-23T06:42:33;99821.50;;;14.24;50.00
52719;BME280;38616;42.140;24.760;2022-09-23T06:44:59;99824.56;;;14.37;49.96
52719;BME280;38616;42.140;24.760;2022-09-23T06:47:24;99823.53;;;14.32;48.97
52719;BME280;38616;42.140;24.760;2022-09-23T06:49:50;99818.22;;;14.55;48.51
52719;BME280;38616;42.140;24.760;2022-09-23T06:52:15;99831.72;;;14.66;48.49
52719;BME280;38616;42.140;24.760;2022-09-23T06:54:40;99817.31;;;14.60;48.33
52719;BME280;38616;42.140;24.760;2022-09-23T06:57:06;99828.47;;;14.63;47.64
52719;BME280;38616;42.140;24.760;2022-09-23T06:59:31;99833.78;;;14.74;47.63
52719;BME280;38616;42.140;24.760;2022-09-23T07:01:57;99835.00;;;14.82;47.04
52719;BME280;38616;42.140;24.760;2022-09-23T07:04:22;99832.91;;;14.59;47.42
52719;BME280;38616;42.140;24.760;2022-09-23T07:06:47;99830.28;;;14.54;47.43
52719;BME280;38616;42.140;24.760;2022-09-23T07:09:13;99840.16;;;14.36;47.75
52719;BME280;38616;42.140;24.760;2022-09-23T07:11:38;99837.53;;;14.45;47.85
52719;BME280;38616;42.140;24.760;2022-09-23T07:14:04;99834.22;;;14.48;47.63
52719;BME280;38616;42.140;24.760;2022-09-23T07:16:29;99842.66;;;14.66;47.79
52719;BME280;38616;42.140;24.760;2022-09-23T07:18:55;99839.50;;;14.58;47.56
52719;BME280;38616;42.140;24.760;2022-09-23T07:21:20;99841.41;;;14.58;47.04
52719;BME280;38616;42.140;24.760;2022-09-23T07:23:46;99836.00;;;14.86;46.70
52719;BME280;38616;42.140;24.760;2022-09-23T07:26:13;99832.56;;;14.33;47.21
52719;BME280;38616;42.140;24.760;2022-09-23T07:28:38;99838.31;;;14.31;47.21
52719;BME280;38616;42.140;24.760;2022-09-23T07:31:08;99834.19;;;14.81;46.37
52719;BME280;38616;42.140;24.760;2022-09-23T07:33:37;99842.19;;;15.05;45.56
52719;BME280;38616;42.140;24.760;2022-09-23T07:36:03;99853.97;;;14.59;46.69
52719;BME280;38616;42.140;24.760;2022-09-23T07:38:29;99842.13;;;14.63;46.08
52719;BME280;38616;42.140;24.760;2022-09-23T07:40:59;99835.59;;;14.78;46.02
52719;BME280;38616;42.140;24.760;2022-09-23T07:43:24;99841.69;;;14.89;45.62
52719;BME280;38616;42.140;24.760;2022-09-23T07:45:52;99841.69;;;15.03;45.38
52719;BME280;38616;42.140;24.760;2022-09-23T07:48:17;99839.25;;;15.16;45.04
52719;BME280;38616;42.140;24.760;2022-09-23T07:50:42;99837.91;;;15.13;44.71
52719;BME280;38616;42.140;24.760;2022-09-23T07:53:08;99829.75;;;14.85;45.29
52719;BME280;38616;42.140;24.760;2022-09-23T07:55:33;99827.00;;;14.85;45.00
52719;BME280;38616;42.140;24.760;2022-09-23T07:57:59;99839.47;;;14.91;45.07
52719;BME280;38616;42.140;24.760;2022-09-23T08:00:24;99836.50;;;15.02;44.49
52719;BME280;38616;42.140;24.760;2022-09-23T08:02:50;99846.97;;;15.00;45.02
52719;BME280;38616;42.140;24.760;2022-09-23T08:05:16;99828.94;;;14.99;45.08
52719;BME280;38616;42.140;24.760;2022-09-23T08:07:41;99829.63;;;15.18;44.60
52719;BME280;38616;42.140;24.760;2022-09-23T08:10:07;99829.63;;;15.32;44.67
52719;BME280;38616;42.140;24.760;2022-09-23T08:12:33;99839.69;;;15.60;44.01
52719;BME280;38616;42.140;24.760;2022-09-23T08:14:59;99824.75;;;15.15;45.05
52719;BME280;38616;42.140;24.760;2022-09-23T08:17:24;99823.84;;;15.20;44.77
52719;BME280;38616;42.140;24.760;2022-09-23T08:19:50;99817.84;;;15.32;44.25
52719;BME280;38616;42.140;24.760;2022-09-23T08:22:15;99827.38;;;15.20;43.85
52719;BME280;38616;42.140;24.760;2022-09-23T08:24:41;99825.66;;;15.39;44.15
52719;BME280;38616;42.140;24.760;2022-09-23T08:27:06;99812.84;;;15.85;43.48
52719;BME280;38616;42.140;24.760;2022-09-23T08:29:31;99794.53;;;15.94;43.34
52719;BME280;38616;42.140;24.760;2022-09-23T08:31:57;99799.72;;;15.95;43.06
52719;BME280;38616;42.140;24.760;2022-09-23T08:34:22;99791.50;;;15.95;42.79
52719;BME280;38616;42.140;24.760;2022-09-23T08:36:50;99807.13;;;15.58;43.44
52719;BME280;38616;42.140;24.760;2022-09-23T08:39:17;99786.94;;;15.91;42.82
52719;BME280;38616;42.140;24.760;2022-09-23T08:47:31;99786.38;;;16.25;41.69
52719;BME280;38616;42.140;24.760;2022-09-23T08:49:36;99798.78;;;16.23;41.52
52719;BME280;38616;42.140;24.760;2022-09-23T08:52:49;99789.50;;;16.10;42.08
52719;BME280;38616;42.140;24.760;2022-09-23T08:54:49;99782.94;;;16.51;41.42
52719;BME280;38616;42.140;24.760;2022-09-23T08:57:21;99785.97;;;16.81;40.49
52719;BME280;38616;42.140;24.760;2022-09-23T08:59:51;99778.16;;;16.66;40.75
52719;BME280;38616;42.140;24.760;2022-09-23T09:02:20;99791.75;;;16.80;40.17
52719;BME280;38616;42.140;24.760;2022-09-23T09:04:47;99778.19;;;16.34;40.57
52719;BME280;38616;42.140;24.760;2022-09-23T09:07:17;99777.09;;;16.76;39.93
52719;BME280;38616;42.140;24.760;2022-09-23T09:09:53;99767.16;;;16.97;39.26
52719;BME280;38616;42.140;24.760;2022-09-23T09:24:57;99769.94;;;17.15;38.75
52719;BME280;38616;42.140;24.760;2022-09-23T09:27:24;99766.72;;;17.39;38.27
52719;BME280;38616;42.140;24.760;2022-09-23T09:29:49;99770.13;;;17.54;38.12
52719;BME280;38616;42.140;24.760;2022-09-23T09:32:35;99765.94;;;17.56;37.81
52719;BME280;38616;42.140;24.760;2022-09-23T09:35:06;99756.22;;;17.85;36.86
52719;BME280;38616;42.140;24.760;2022-09-23T09:37:35;99765.59;;;17.84;36.81
52719;BME280;38616;42.140;24.760;2022-09-23T09:40:03;99773.81;;;17.23;36.25
52719;BME280;38616;42.140;24.760;2022-09-23T09:42:47;99753.34;;;17.55;37.01
52719;BME280;38616;42.140;24.760;2022-09-23T09:47:43;99766.28;;;17.64;36.16
52719;BME280;38616;42.140;24.760;2022-09-23T09:52:38;99757.53;;;17.44;36.42
52719;BME280;38616;42.140;24.760;2022-09-23T09:57:43;99770.13;;;17.71;36.70
52719;BME280;38616;42.140;24.760;2022-09-23T10:02:42;99753.78;;;18.10;36.01
52719;BME280;38616;42.140;24.760;2022-09-23T10:05:21;99755.25;;;18.08;36.23
52719;BME280;38616;42.140;24.760;2022-09-23T10:07:47;99762.16;;;18.14;36.41
52719;BME280;38616;42.140;24.760;2022-09-23T10:10:31;99754.69;;;18.23;36.29
52719;BME280;38616;42.140;24.760;2022-09-23T10:12:56;99763.31;;;17.86;35.06
52719;BME280;38616;42.140;24.760;2022-09-23T10:15:26;99751.22;;;17.70;34.66
52719;BME280;38616;42.140;24.760;2022-09-23T10:17:52;99750.56;;;17.82;34.41
52719;BME280;38616;42.140;24.760;2022-09-23T10:20:18;99745.06;;;17.82;34.90
52719;BME280;38616;42.140;24.760;2022-09-23T10:22:43;99737.97;;;17.81;34.16
52719;BME280;38616;42.140;24.760;2022-09-23T10:25:20;99748.00;;;17.77;33.46
52719;BME280;38616;42.140;24.760;2022-09-23T10:27:48;99733.59;;;17.80;33.64
52719;BME280;38616;42.140;24.760;2022-09-23T10:32:42;99730.69;;;17.85;32.57
52719;BME280;38616;42.140;24.760;2022-09-23T10:37:52;99711.28;;;18.46;31.84
52719;BME280;38616;42.140;24.760;2022-09-23T10:46:07;99695.66;;;18.59;31.36
52719;BME280;38616;42.140;24.760;2022-09-23T10:49:15;99702.28;;;18.28;31.00
52719;BME280;38616;42.140;24.760;2022-09-23T10:51:53;99702.06;;;18.04;30.79
52719;BME280;38616;42.140;24.760;2022-09-23T10:54:48;99702.06;;;18.42;30.57
52719;BME280;38616;42.140;24.760;2022-09-23T10:57:13;99691.44;;;18.62;30.49
52719;BME280;38616;42.140;24.760;2022-09-23T11:07:37;99682.03;;;18.63;30.09
52719;BME280;38616;42.140;24.760;2022-09-23T11:12:53;99671.09;;;18.54;29.77
52719;BME280;38616;42.140;24.760;2022-09-23T11:15:28;99663.22;;;18.95;29.63
52719;BME280;38616;42.140;24.760;2022-09-23T11:23:07;99654.72;;;19.64;29.00
52719;BME280;38616;42.140;24.760;2022-09-23T11:31:19;99653.84;;;19.17;28.71
52719;BME280;38616;42.140;24.760;2022-09-23T11:36:37;99649.56;;;19.08;28.94
52719;BME280;38616;42.140;24.760;2022-09-23T11:39:10;99637.44;;;19.42;28.68
52719;BME280;38616;42.140;24.760;2022-09-23T11:41:37;99633.63;;;19.47;28.49
52719;BME280;38616;42.140;24.760;2022-09-23T11:44:17;99630.72;;;19.31;28.98
52719;BME280;38616;42.140;24.760;2022-09-23T11:46:45;99630.66;;;19.52;28.45
52719;BME280;38616;42.140;24.760;2022-09-23T11:49:24;99627.06;;;19.73;27.36
52719;BME280;38616;42.140;24.760;2022-09-23T11:54:50;99632.53;;;19.60;27.15
52719;BME280;38616;42.140;24.760;2022-09-23T11:59:49;99629.44;;;19.62;27.17
52719;BME280;38616;42.140;24.760;2022-09-23T12:03:01;99618.72;;;19.14;27.64
52719;BME280;38616;42.140;24.760;2022-09-23T12:05:07;99617.19;;;19.72;27.44
52719;BME280;38616;42.140;24.760;2022-09-23T12:10:05;99620.03;;;19.63;26.88
52719;BME280;38616;42.140;24.760;2022-09-23T12:27:38;99623.09;;;19.49;27.80
52719;BME280;38616;42.140;24.760;2022-09-23T12:30:11;99608.69;;;19.77;28.14
52719;BME280;38616;42.140;24.760;2022-09-23T12:32:38;99604.03;;;20.27;26.83
52719;BME280;38616;42.140;24.760;2022-09-23T12:35:03;99595.06;;;20.18;26.26
52719;BME280;38616;42.140;24.760;2022-09-23T12:37:34;99604.03;;;20.27;26.55
52719;BME280;38616;42.140;24.760;2022-09-23T12:40:04;99603.47;;;19.97;26.55
52719;BME280;38616;42.140;24.760;2022-09-23T12:42:31;99617.56;;;19.83;26.49
52719;BME280;38616;42.140;24.760;2022-09-23T12:45:16;99606.69;;;19.99;26.31
52719;BME280;38616;42.140;24.760;2022-09-23T12:47:43;99618.72;;;19.82;25.90
52719;BME280;38616;42.140;24.760;2022-09-23T12:52:52;99610.50;;;19.60;26.61
52719;BME280;38616;42.140;24.760;2022-09-23T12:57:46;99611.06;;;20.00;26.22
52719;BME280;38616;42.140;24.760;2022-09-23T13:05:08;99604.16;;;20.06;26.59
52719;BME280;38616;42.140;24.760;2022-09-23T13:08:01;99598.28;;;20.20;26.11
52719;BME280;38616;42.140;24.760;2022-09-23T13:10:28;99610.34;;;20.40;26.33
52719;BME280;38616;42.140;24.760;2022-09-23T13:12:54;99604.81;;;20.52;25.84
52719;BME280;38616;42.140;24.760;2022-09-23T13:15:41;99609.66;;;20.43;25.47
52719;BME280;38616;42.140;24.760;2022-09-23T13:20:43;99604.16;;;20.06;26.09
52719;BME280;38616;42.140;24.760;2022-09-23T13:23:21;99601.28;;;20.40;26.36
52719;BME280;38616;42.140;24.760;2022-09-23T13:25:47;99604.84;;;20.15;25.74
52719;BME280;38616;42.140;24.760;2022-09-23T13:28:38;99604.63;;;20.08;25.54
52719;BME280;38616;42.140;24.760;2022-09-23T13:31:04;99611.28;;;20.07;25.27
52719;BME280;38616;42.140;24.760;2022-09-23T13:33:36;99605.63;;;19.91;25.21
52719;BME280;38616;42.140;24.760;2022-09-23T13:36:07;99600.03;;;20.00;25.17
52719;BME280;38616;42.140;24.760;2022-09-23T13:38:34;99602.41;;;20.01;25.54
52719;BME280;38616;42.140;24.760;2022-09-23T13:41:18;99601.84;;;20.33;25.51
52719;BME280;38616;42.140;24.760;2022-09-23T13:46:18;99588.00;;;20.58;25.29
52719;BME280;38616;42.140;24.760;2022-09-23T13:48:45;99593.50;;;20.83;25.14
52719;BME280;38616;42.140;24.760;2022-09-23T13:51:15;99604.66;;;20.74;25.43
52719;BME280;38616;42.140;24.760;2022-09-23T13:53:43;99590.97;;;20.77;26.20
52719;BME280;38616;42.140;24.760;2022-09-23T13:56:15;99590.50;;;20.88;25.86
52719;BME280;38616;42.140;24.760;2022-09-23T13:58:40;99619.50;;;19.82;28.59
52719;BME280;38616;42.140;24.760;2022-09-23T14:01:08;99628.22;;;19.38;30.92
52719;BME280;38616;42.140;24.760;2022-09-23T14:03:35;99632.47;;;18.93;34.47
52719;BME280;38616;42.140;24.760;2022-09-23T14:06:02;99624.47;;;18.58;35.22
52719;BME280;38616;42.140;24.760;2022-09-23T14:08:28;99620.09;;;18.57;34.68
52719;BME280;38616;42.140;24.760;2022-09-23T14:10:55;99617.22;;;18.74;35.49
52719;BME280;38616;42.140;24.760;2022-09-23T14:13:24;99631.72;;;18.41;36.83
52719;BME280;38616;42.140;24.760;2022-09-23T14:15:51;99626.69;;;18.43;36.93
52719;BME280;38616;42.140;24.760;2022-09-23T14:18:22;99633.13;;;18.48;37.54
52719;BME280;38616;42.140;24.760;2022-09-23T14:20:51;99633.16;;;18.39;37.74
52719;BME280;38616;42.140;24.760;2022-09-23T14:23:16;99631.53;;;18.68;37.28
52719;BME280;38616;42.140;24.760;2022-09-23T14:25:42;99626.53;;;18.61;36.64
52719;BME280;38616;42.140;24.760;2022-09-23T14:28:19;99632.81;;;18.70;36.37
52719;BME280;38616;42.140;24.760;2022-09-23T14:30:45;99635.78;;;18.86;36.25
52719;BME280;38616;42.140;24.760;2022-09-23T14:33:33;99638.25;;;18.28;36.61
52719;BME280;38616;42.140;24.760;2022-09-23T14:36:02;99636.09;;;18.64;36.13
52719;BME280;38616;42.140;24.760;2022-09-23T14:38:30;99636.81;;;18.52;35.63
52719;BME280;38616;42.140;24.760;2022-09-23T14:41:24;99641.22;;;18.44;36.00
52719;BME280;38616;42.140;24.760;2022-09-23T14:43:56;99630.28;;;18.35;36.34
52719;BME280;38616;42.140;24.760;2022-09-23T14:46:23;99642.16;;;18.18;37.01
52719;BME280;38616;42.140;24.760;2022-09-23T14:51:18;99642.22;;;18.39;35.59
52719;BME280;38616;42.140;24.760;2022-09-23T14:53:43;99642.25;;;18.30;35.83
52719;BME280;38616;42.140;24.760;2022-09-23T14:56:19;99636.34;;;18.50;35.41
52719;BME280;38616;42.140;24.760;2022-09-23T15:03:52;99650.34;;;18.87;35.37
52719;BME280;38616;42.140;24.760;2022-09-23T15:06:17;99649.63;;;18.48;34.93
52719;BME280;38616;42.140;24.760;2022-09-23T15:08:43;99643.97;;;18.44;36.39
52719;BME280;38616;42.140;24.760;2022-09-23T15:11:09;99655.53;;;18.58;36.33
52719;BME280;38616;42.140;24.760;2022-09-23T15:13:41;99649.97;;;18.97;35.39
52719;BME280;38616;42.140;24.760;2022-09-23T15:16:10;99653.94;;;19.09;35.25
52719;BME280;38616;42.140;24.760;2022-09-23T15:18:37;99652.63;;;19.06;35.88
52719;BME280;38616;42.140;24.760;2022-09-23T15:21:09;99664.38;;;19.15;34.84
52719;BME280;38616;42.140;24.760;2022-09-23T15:26:02;99661.72;;;18.76;35.25
52719;BME280;38616;42.140;24.760;2022-09-23T15:28:29;99669.13;;;18.85;34.99
52719;BME280;38616;42.140;24.760;2022-09-23T15:30:54;99667.13;;;18.94;34.82
52719;BME280;38616;42.140;24.760;2022-09-23T15:33:20;99676.91;;;18.83;34.59
52719;BME280;38616;42.140;24.760;2022-09-23T15:35:52;99669.63;;;18.57;35.20
52719;BME280;38616;42.140;24.760;2022-09-23T15:38:17;99676.50;;;18.42;35.67
52719;BME280;38616;42.140;24.760;2022-09-23T15:40:42;99671.09;;;18.54;35.35
52719;BME280;38616;42.140;24.760;2022-09-23T15:43:12;99677.16;;;18.69;35.22